createdAt,value
2023-03-15T00:01:44.745Z,88965.16
2023-03-15T00:04:11.775Z,88979.63
2023-03-15T00:06:38.794Z,88974.06
2023-03-15T00:09:05.807Z,88965.56
2023-03-15T00:11:32.828Z,88961.78
2023-03-15T00:14:00.601Z,88966.47
2023-03-15T00:16:27.800Z,88947.47
2023-03-15T00:18:55.222Z,88944.53
2023-03-15T00:21:22.871Z,88934.00
2023-03-15T00:23:50.275Z,88922.03
2023-03-15T00:26:17.647Z,88929.34
2023-03-15T00:28:44.886Z,88919.84
2023-03-15T00:31:24.809Z,88916.47
2023-03-15T00:33:53.417Z,88908.41
2023-03-15T00:36:21.862Z,88906.94
2023-03-15T00:38:48.905Z,88907.09
2023-03-15T00:41:17.945Z,88911.19
2023-03-15T00:43:46.066Z,88917.59
2023-03-15T00:46:14.242Z,88895.84
2023-03-15T00:48:41.649Z,88894.94
2023-03-15T00:51:13.667Z,88892.00
2023-03-15T00:53:43.420Z,88889.69
2023-03-15T00:56:15.787Z,88904.19
2023-03-15T00:58:44.011Z,88877.47
2023-03-15T01:01:14.790Z,88887.38
2023-03-15T01:03:42.529Z,88864.78
2023-03-15T01:06:12.474Z,88881.41
2023-03-15T01:08:40.028Z,88875.28
2023-03-15T01:11:11.245Z,88887.38
2023-03-15T01:13:38.909Z,88881.56
2023-03-15T01:16:07.161Z,88876.00
2023-03-15T01:18:34.360Z,88869.41
2023-03-15T01:21:01.673Z,88865.00
2023-03-15T01:23:31.750Z,88859.44
2023-03-15T01:26:03.216Z,88875.09
2023-03-15T01:28:30.525Z,88872.03
2023-03-15T01:30:59.849Z,88868.56
2023-03-15T01:33:27.780Z,88880.81
2023-03-15T01:36:06.167Z,88881.13
2023-03-15T01:38:33.979Z,88880.22
2023-03-15T01:41:01.645Z,88885.47
2023-03-15T01:43:30.864Z,88878.66
2023-03-15T01:45:58.070Z,88865.78
2023-03-15T01:48:38.653Z,88881.28
2023-03-15T01:51:37.460Z,88861.41
2023-03-15T01:54:16.589Z,88862.72
2023-03-15T01:56:52.862Z,88858.91
2023-03-15T01:59:35.383Z,88880.22
2023-03-15T02:02:03.541Z,88876.44
2023-03-15T02:04:40.816Z,88867.38
2023-03-15T02:07:10.507Z,88854.09
2023-03-15T02:10:05.695Z,88850.84
2023-03-15T02:12:35.766Z,88853.47
2023-03-15T02:15:06.310Z,88832.75
2023-03-15T02:17:45.326Z,88838.47
2023-03-15T02:20:21.050Z,88835.78
2023-03-15T02:22:57.315Z,88833.03
2023-03-15T02:25:27.133Z,88833.47
2023-03-15T02:27:54.735Z,88835.84
2023-03-15T02:30:22.521Z,88838.75
2023-03-15T02:32:50.157Z,88844.16
2023-03-15T02:35:25.789Z,88852.75
2023-03-15T02:37:52.883Z,88834.38
2023-03-15T02:40:24.881Z,88836.72
2023-03-15T02:42:57.676Z,88845.31
2023-03-15T02:45:27.429Z,88838.88
2023-03-15T02:47:55.461Z,88844.31
2023-03-15T02:50:22.705Z,88839.94
2023-03-15T02:52:49.869Z,88849.28
2023-03-15T02:55:16.931Z,88839.94
2023-03-15T02:57:44.165Z,88838.16
2023-03-15T03:00:14.452Z,88834.06
2023-03-15T03:02:43.926Z,88839.03
2023-03-15T03:05:13.008Z,88848.66
2023-03-15T03:07:40.462Z,88837.75
2023-03-15T03:10:08.286Z,88836.59
2023-03-15T03:12:35.374Z,88829.13
2023-03-15T03:15:02.617Z,88845.75
2023-03-15T03:17:30.011Z,88839.06
2023-03-15T03:19:57.534Z,88828.97
2023-03-15T03:22:24.477Z,88838.16
2023-03-15T03:24:52.740Z,88837.28
2023-03-15T03:27:19.890Z,88850.44
2023-03-15T03:29:46.990Z,88837.41
2023-03-15T03:32:14.100Z,88839.28
2023-03-15T03:34:41.277Z,88845.75
2023-03-15T03:37:08.433Z,88843.41
2023-03-15T03:39:35.538Z,88836.28
2023-03-15T03:42:02.703Z,88834.81
2023-03-15T03:44:29.835Z,88839.22
2023-03-15T03:46:57.078Z,88843.13
2023-03-15T03:49:24.113Z,88836.13
2023-03-15T03:54:31.887Z,88846.94
2023-03-15T03:56:58.912Z,88866.50
2023-03-15T03:59:26.035Z,88859.31
2023-03-15T04:01:53.487Z,88855.94
2023-03-15T04:04:20.551Z,88865.47
2023-03-15T04:06:47.744Z,88857.28
2023-03-15T04:09:16.281Z,88851.63
2023-03-15T04:11:44.176Z,88861.25
2023-03-15T04:14:12.673Z,88850.44
2023-03-15T04:16:40.576Z,88858.47
2023-03-15T04:19:08.737Z,88861.41
2023-03-15T04:21:36.064Z,88859.94
2023-03-15T04:24:03.136Z,88857.75
2023-03-15T04:26:30.584Z,88861.53
2023-03-15T04:28:59.587Z,88865.31
2023-03-15T04:31:27.081Z,88865.31
2023-03-15T04:33:55.305Z,88883.13
2023-03-15T04:36:25.470Z,88878.16
2023-03-15T04:38:52.557Z,88872.31
2023-03-15T04:44:00.209Z,88888.81
2023-03-15T04:46:27.270Z,88877.84
2023-03-15T04:48:54.282Z,88872.00
2023-03-15T04:51:21.683Z,88874.94
2023-03-15T04:53:48.764Z,88875.25
2023-03-15T04:56:15.866Z,88883.41
2023-03-15T04:58:43.073Z,88885.44
2023-03-15T05:01:10.948Z,88892.75
2023-03-15T05:03:38.116Z,88893.94
2023-03-15T05:06:05.467Z,88886.09
2023-03-15T05:08:32.561Z,88886.09
2023-03-15T05:10:59.668Z,88887.25
2023-03-15T05:13:26.864Z,88898.84
2023-03-15T05:15:54.068Z,88904.75
2023-03-15T05:18:21.215Z,88893.22
2023-03-15T05:20:48.609Z,88893.97
2023-03-15T05:23:15.810Z,88895.47
2023-03-15T05:25:42.995Z,88893.22
2023-03-15T05:28:10.277Z,88903.03
2023-03-15T05:30:37.403Z,88899.25
2023-03-15T05:33:04.581Z,88894.72
2023-03-15T05:35:36.851Z,88895.59
2023-03-15T05:38:03.886Z,88899.81
2023-03-15T05:40:31.018Z,88898.94
2023-03-15T05:42:58.180Z,88911.78
2023-03-15T05:45:25.321Z,88896.84
2023-03-15T05:47:52.348Z,88899.75
2023-03-15T05:50:19.547Z,88907.22
2023-03-15T05:52:46.449Z,88910.25
2023-03-15T05:55:13.501Z,88913.75
2023-03-15T05:57:40.638Z,88915.38
2023-03-15T06:00:15.151Z,88918.75
2023-03-15T06:02:44.181Z,88915.41
2023-03-15T06:05:11.362Z,88917.00
2023-03-15T06:07:38.679Z,88915.66
2023-03-15T06:10:06.628Z,88915.22
2023-03-15T06:12:33.730Z,88911.75
2023-03-15T06:15:02.126Z,88904.31
2023-03-15T06:17:29.176Z,88909.47
2023-03-15T06:19:56.323Z,88911.06
2023-03-15T06:22:23.283Z,88915.00
2023-03-15T06:24:51.228Z,88895.41
2023-03-15T06:27:18.211Z,88906.66
2023-03-15T06:29:45.229Z,88884.56
2023-03-15T06:32:12.488Z,88892.97
2023-03-15T06:34:39.548Z,88899.09
2023-03-15T06:37:06.481Z,88883.72
2023-03-15T06:39:33.778Z,88896.66
2023-03-15T06:42:01.102Z,88885.84
2023-03-15T06:44:28.689Z,88892.91
2023-03-15T06:46:55.736Z,88892.66
2023-03-15T06:49:22.802Z,88888.97
2023-03-15T06:51:50.181Z,88885.16
2023-03-15T06:54:17.917Z,88880.00
2023-03-15T06:56:45.006Z,88864.50
2023-03-15T06:59:12.148Z,88872.44
2023-03-15T07:01:39.338Z,88872.38
2023-03-15T07:04:08.388Z,88865.72
2023-03-15T07:06:36.124Z,88874.06
2023-03-15T07:09:04.460Z,88879.53
2023-03-15T07:11:32.387Z,88860.25
2023-03-15T07:13:59.529Z,88878.66
2023-03-15T07:16:26.772Z,88860.44
2023-03-15T07:18:53.757Z,88862.38
2023-03-15T07:21:20.824Z,88861.97
2023-03-15T07:23:47.938Z,88865.16
2023-03-15T07:26:15.038Z,88850.91
2023-03-15T07:28:41.992Z,88842.38
2023-03-15T07:31:10.500Z,88853.56
2023-03-15T07:33:38.187Z,88849.69
2023-03-15T07:36:11.728Z,88853.50
2023-03-15T07:38:38.819Z,88843.50
2023-03-15T07:41:07.175Z,88831.59
2023-03-15T07:43:35.317Z,88830.25
2023-03-15T07:46:02.417Z,88821.94
2023-03-15T07:48:29.796Z,88802.50
2023-03-15T07:50:57.090Z,88804.09
2023-03-15T07:53:24.939Z,88808.63
2023-03-15T07:55:52.234Z,88802.44
2023-03-15T07:58:28.565Z,88817.28
2023-03-15T08:00:57.151Z,88830.78
2023-03-15T08:03:25.949Z,88847.56
2023-03-15T08:05:54.220Z,88866.78
2023-03-15T08:08:21.494Z,88874.59
2023-03-15T08:10:48.928Z,88877.50
2023-03-15T08:13:16.116Z,88883.72
2023-03-15T08:15:46.455Z,88882.03
2023-03-15T08:18:14.703Z,88893.22
2023-03-15T08:20:41.810Z,88887.78
2023-03-15T08:23:09.740Z,88881.75
2023-03-15T08:25:37.156Z,88865.28
2023-03-15T08:28:04.624Z,88874.09
2023-03-15T08:30:31.780Z,88865.72
2023-03-15T08:32:59.201Z,88860.75
2023-03-15T08:35:29.166Z,88866.03
2023-03-15T08:37:56.556Z,88863.06
2023-03-15T08:40:23.758Z,88859.53
2023-03-15T08:42:51.377Z,88875.84
2023-03-15T08:45:19.257Z,88879.69
2023-03-15T08:47:46.837Z,88899.53
2023-03-15T08:50:17.791Z,88911.56
2023-03-15T08:52:45.032Z,88902.41
2023-03-15T08:55:12.775Z,88895.47
2023-03-15T08:57:40.086Z,88893.72
2023-03-15T09:00:08.260Z,88901.88
2023-03-15T09:02:36.625Z,88888.00
2023-03-15T09:05:04.962Z,88890.44
2023-03-15T09:07:32.102Z,88878.97
2023-03-15T09:09:59.444Z,88888.13
2023-03-15T09:12:29.173Z,88886.59
2023-03-15T09:14:56.310Z,88895.72
2023-03-15T09:17:23.519Z,88880.84
2023-03-15T09:19:59.324Z,88889.16
2023-03-15T09:22:38.688Z,88880.84
2023-03-15T09:25:08.891Z,88869.16
2023-03-15T09:27:39.331Z,88876.56
2023-03-15T09:30:07.128Z,88871.00
2023-03-15T09:32:37.804Z,88863.88
2023-03-15T09:35:09.200Z,88862.00
2023-03-15T09:37:36.782Z,88875.28
2023-03-15T09:40:07.414Z,88870.00
2023-03-15T09:43:08.132Z,88864.06
2023-03-15T09:46:06.374Z,88866.81
2023-03-15T09:48:41.615Z,88869.59
2023-03-15T09:52:02.295Z,88866.50
2023-03-15T09:54:55.517Z,88868.91
2023-03-15T09:57:41.813Z,88859.88
2023-03-15T10:00:19.219Z,88844.28
2023-03-15T10:03:05.632Z,88844.63
2023-03-15T10:05:39.329Z,88856.06
2023-03-15T10:08:17.846Z,88843.31
2023-03-15T10:10:53.280Z,88843.50
2023-03-15T10:13:49.704Z,88840.59
2023-03-15T10:16:36.760Z,88842.41
2023-03-15T10:19:17.923Z,88849.25
2023-03-15T10:22:09.754Z,88843.72
2023-03-15T10:25:02.351Z,88842.81
2023-03-15T10:27:38.051Z,88825.09
2023-03-15T10:30:19.205Z,88821.38
2023-03-15T10:33:19.860Z,88815.41
2023-03-15T10:35:47.236Z,88810.16
2023-03-15T10:38:24.287Z,88818.09
2023-03-15T10:41:06.145Z,88812.75
2023-03-15T10:43:47.278Z,88795.69
2023-03-15T10:46:30.866Z,88788.19
2023-03-15T10:49:21.937Z,88789.91
2023-03-15T10:51:52.210Z,88794.47
2023-03-15T10:54:25.123Z,88780.94
2023-03-15T10:57:02.704Z,88782.16
2023-03-15T10:59:35.406Z,88765.00
2023-03-15T11:02:29.572Z,88766.44
2023-03-15T11:05:11.686Z,88757.13
2023-03-15T11:08:03.391Z,88746.69
2023-03-15T11:10:35.053Z,88731.28
2023-03-15T11:13:33.328Z,88746.69
2023-03-15T11:16:10.258Z,88724.91
2023-03-15T11:19:21.721Z,88738.31
2023-03-15T11:21:56.018Z,88728.78
2023-03-15T11:33:54.534Z,88736.06
2023-03-15T11:36:33.412Z,88714.09
2023-03-15T11:39:10.902Z,88728.06
2023-03-15T11:41:58.041Z,88724.13
2023-03-15T11:44:39.361Z,88738.38
2023-03-15T11:47:53.170Z,88726.09
2023-03-15T11:50:32.503Z,88721.88
2023-03-15T11:53:37.436Z,88720.44
2023-03-15T11:56:48.684Z,88728.75
2023-03-15T12:03:21.268Z,88725.72
2023-03-15T12:06:44.237Z,88721.28
2023-03-15T12:10:06.582Z,88723.81
2023-03-15T12:12:58.950Z,88720.25
2023-03-15T12:15:59.696Z,88716.00
2023-03-15T12:20:48.444Z,88720.03
2023-03-15T13:25:58.840Z,88681.09
2023-03-15T13:28:36.999Z,88678.44
2023-03-15T13:31:13.097Z,88683.13
2023-03-15T13:33:40.065Z,88680.97
2023-03-15T13:36:18.337Z,88672.59
2023-03-15T13:38:53.846Z,88677.94
2023-03-15T13:41:29.059Z,88673.66
2023-03-15T13:44:00.475Z,88664.84
2023-03-15T13:46:30.381Z,88652.69
2023-03-15T13:48:57.687Z,88652.97
2023-03-15T13:51:26.027Z,88649.72
2023-03-15T13:53:57.069Z,88652.75
2023-03-15T13:56:43.502Z,88655.44
2023-03-15T13:59:16.047Z,88647.91
2023-03-15T14:01:43.480Z,88648.63
2023-03-15T14:04:17.284Z,88651.69
2023-03-15T14:06:44.451Z,88652.94
2023-03-15T14:09:21.949Z,88652.66
2023-03-15T14:12:22.093Z,88651.44
2023-03-15T14:14:55.284Z,88651.25
2023-03-15T14:17:27.479Z,88650.25
2023-03-15T14:19:56.539Z,88654.66
2023-03-15T14:22:24.268Z,88645.69
2023-03-15T14:24:52.574Z,88657.69
2023-03-15T14:27:28.564Z,88647.94
2023-03-15T14:29:59.086Z,88657.19
2023-03-15T14:32:30.091Z,88661.38
2023-03-15T14:35:02.724Z,88656.47
2023-03-15T14:37:38.933Z,88668.41
2023-03-15T14:40:21.579Z,88656.03
2023-03-15T14:42:50.417Z,88667.16
2023-03-15T14:45:18.869Z,88667.69
2023-03-15T14:47:56.731Z,88660.72
2023-03-15T14:50:25.475Z,88658.81
2023-03-15T14:52:53.298Z,88661.00
2023-03-15T14:55:23.438Z,88659.84
2023-03-15T14:57:50.491Z,88664.28
2023-03-15T15:00:20.016Z,88663.41
2023-03-15T15:02:51.053Z,88663.69
2023-03-15T15:05:38.104Z,88673.88
2023-03-15T15:08:18.598Z,88675.28
2023-03-15T15:10:47.120Z,88670.31
2023-03-15T15:13:23.057Z,88674.00
2023-03-15T15:15:57.331Z,88668.75
2023-03-15T15:18:26.960Z,88684.00
2023-03-15T15:20:55.853Z,88684.63
2023-03-15T15:23:28.168Z,88694.13
2023-03-15T15:26:01.562Z,88693.91
2023-03-15T15:28:36.376Z,88697.56
2023-03-15T15:31:06.108Z,88691.03
2023-03-15T15:33:33.020Z,88690.81
2023-03-15T15:35:59.942Z,88692.97
2023-03-15T15:38:33.757Z,88696.38
2023-03-15T15:41:00.635Z,88691.06
2023-03-15T15:43:28.280Z,88687.44
2023-03-15T15:45:55.433Z,88697.84
2023-03-15T15:48:22.404Z,88694.22
2023-03-15T15:50:49.581Z,88707.72
2023-03-15T15:53:19.319Z,88706.75
2023-03-15T15:55:46.391Z,88702.16
2023-03-15T15:58:14.675Z,88701.69
2023-03-15T16:00:41.540Z,88697.84
2023-03-15T16:03:15.362Z,88696.84
2023-03-15T16:05:42.584Z,88697.81
2023-03-15T16:08:24.771Z,88689.63
2023-03-15T16:10:52.418Z,88695.88
2023-03-15T16:13:19.409Z,88696.13
2023-03-15T16:15:46.289Z,88698.06
2023-03-15T16:18:13.566Z,88699.03
2023-03-15T16:20:42.669Z,88697.31
2023-03-15T16:23:19.708Z,88709.66
2023-03-15T16:25:50.097Z,88713.28
2023-03-15T16:28:17.137Z,88715.44
2023-03-15T16:30:46.692Z,88722.47
2023-03-15T16:33:20.958Z,88714.25
2023-03-15T16:35:48.742Z,88719.56
2023-03-15T16:38:18.842Z,88731.84
2023-03-15T16:40:47.320Z,88730.38
2023-03-15T16:43:15.088Z,88729.16
2023-03-15T16:45:42.039Z,88729.41
2023-03-15T16:48:08.888Z,88727.22
2023-03-15T16:50:36.836Z,88742.22
2023-03-15T16:53:07.035Z,88742.50
2023-03-15T16:55:34.103Z,88749.03
2023-03-15T16:58:15.232Z,88751.22
2023-03-15T17:00:42.301Z,88768.41
2023-03-15T17:03:09.639Z,88768.63
2023-03-15T17:05:36.647Z,88775.09
2023-03-15T17:08:03.488Z,88779.88
2023-03-15T17:10:32.288Z,88782.06
2023-03-15T17:13:02.415Z,88790.03
2023-03-15T17:15:31.142Z,88793.34
2023-03-15T17:17:58.221Z,88802.72
2023-03-15T17:20:27.836Z,88801.75
2023-03-15T17:22:58.827Z,88804.47
2023-03-15T17:25:26.992Z,88794.16
2023-03-15T17:27:54.572Z,88804.34
2023-03-15T17:30:27.844Z,88799.28
2023-03-15T17:32:56.968Z,88804.34
2023-03-15T17:35:38.027Z,88801.94
2023-03-15T17:38:14.013Z,88798.53
2023-03-15T17:40:42.412Z,88804.72
2023-03-15T17:43:13.522Z,88805.88
2023-03-15T17:45:40.817Z,88801.97
2023-03-15T17:48:07.994Z,88798.31
2023-03-15T17:50:35.810Z,88795.66
2023-03-15T17:53:06.682Z,88792.44
2023-03-15T17:55:35.623Z,88796.31
2023-03-15T17:58:10.521Z,88795.44
2023-03-15T18:00:38.134Z,88802.78
2023-03-15T18:03:06.517Z,88804.72
2023-03-15T18:05:33.688Z,88803.38
2023-03-15T18:08:00.802Z,88794.41
2023-03-15T18:10:34.698Z,88803.22
2023-03-15T18:13:02.716Z,88791.34
2023-03-15T18:15:34.038Z,88791.34
2023-03-15T18:18:05.053Z,88795.97
2023-03-15T18:20:33.239Z,88792.69
2023-03-15T18:23:00.446Z,88789.78
2023-03-15T18:25:30.654Z,88792.63
2023-03-15T18:27:59.373Z,88789.41
2023-03-15T18:30:29.739Z,88797.06
2023-03-15T18:32:56.883Z,88798.38
2023-03-15T18:35:35.528Z,88789.16
2023-03-15T18:38:03.680Z,88785.00
2023-03-15T18:40:32.142Z,88785.59
2023-03-15T18:42:59.356Z,88790.16
2023-03-15T18:45:33.579Z,88792.78
2023-03-15T18:48:01.114Z,88798.63
2023-03-15T18:50:32.272Z,88798.09
2023-03-15T18:53:05.025Z,88800.06
2023-03-15T18:55:33.635Z,88797.84
2023-03-15T18:58:01.157Z,88802.84
2023-03-15T19:00:33.549Z,88801.34
2023-03-15T19:03:05.754Z,88795.63
2023-03-15T19:05:38.379Z,88799.97
2023-03-15T19:08:05.848Z,88794.19
2023-03-15T19:10:32.697Z,88799.88
2023-03-15T19:13:04.022Z,88797.84
2023-03-15T19:15:31.869Z,88805.97
2023-03-15T19:17:59.123Z,88810.72
2023-03-15T19:20:26.540Z,88813.59
2023-03-15T19:22:53.459Z,88814.81
2023-03-15T19:25:22.525Z,88804.63
2023-03-15T19:27:49.678Z,88798.38
2023-03-15T19:30:19.080Z,88799.97
2023-03-15T19:32:47.472Z,88795.97
2023-03-15T19:35:16.019Z,88787.25
2023-03-15T19:37:43.111Z,88784.13
2023-03-15T19:40:12.426Z,88780.19
2023-03-15T19:42:40.207Z,88786.16
2023-03-15T19:45:09.111Z,88783.50
2023-03-15T19:47:36.499Z,88787.91
2023-03-15T19:50:03.823Z,88779.94
2023-03-15T19:52:31.481Z,88779.66
2023-03-15T19:54:58.983Z,88787.13
2023-03-15T19:57:26.085Z,88786.16
2023-03-15T19:59:54.634Z,88781.28
2023-03-15T20:02:21.849Z,88783.28
2023-03-15T20:04:50.728Z,88786.41
2023-03-15T20:07:18.148Z,88778.25
2023-03-15T20:09:45.269Z,88786.94
2023-03-15T20:12:13.688Z,88793.47
2023-03-15T20:14:41.707Z,88788.63
2023-03-15T20:17:08.531Z,88794.66
2023-03-15T20:19:35.965Z,88802.59
2023-03-15T20:22:02.801Z,88799.47
2023-03-15T20:24:30.810Z,88801.16
2023-03-15T20:26:58.072Z,88803.03
2023-03-15T20:29:24.929Z,88802.97
2023-03-15T20:31:51.882Z,88806.09
2023-03-15T20:34:19.277Z,88810.47
2023-03-15T20:36:47.272Z,88808.25
2023-03-15T20:39:14.767Z,88812.63
2023-03-15T20:41:42.375Z,88819.38
2023-03-15T20:44:09.467Z,88814.06
2023-03-15T20:46:36.701Z,88812.63
2023-03-15T20:49:03.673Z,88813.81
2023-03-15T20:51:30.552Z,88808.50
2023-03-15T20:53:57.561Z,88812.88
2023-03-15T20:56:24.709Z,88815.50
2023-03-15T20:58:52.334Z,88817.13
2023-03-15T21:01:19.854Z,88809.91
2023-03-15T21:03:48.099Z,88808.88
2023-03-15T21:06:15.033Z,88810.56
2023-03-15T21:08:42.250Z,88801.41
2023-03-15T21:11:11.147Z,88802.34
2023-03-15T21:13:38.524Z,88802.59
2023-03-15T21:16:05.786Z,88812.41
2023-03-15T21:18:33.688Z,88806.22
2023-03-15T21:21:04.016Z,88810.63
2023-03-15T21:23:31.729Z,88810.63
2023-03-15T21:26:00.317Z,88817.91
2023-03-15T21:28:27.175Z,88813.59
2023-03-15T21:30:55.780Z,88820.78
2023-03-15T21:33:25.221Z,88821.31
2023-03-15T21:35:53.271Z,88823.78
2023-03-15T21:38:20.590Z,88820.66
2023-03-15T21:40:50.410Z,88820.84
2023-03-15T21:43:17.610Z,88811.69
2023-03-15T21:45:45.244Z,88812.34
2023-03-15T21:48:12.959Z,88818.84
2023-03-15T21:50:39.893Z,88816.28
2023-03-15T21:53:07.175Z,88814.75
2023-03-15T21:55:34.133Z,88829.69
2023-03-15T21:58:02.156Z,88815.53
2023-03-15T22:00:29.983Z,88821.81
2023-03-15T22:02:57.179Z,88813.22
2023-03-15T22:05:24.916Z,88808.41
2023-03-15T22:07:51.765Z,88806.53
2023-03-15T22:10:18.759Z,88802.22
2023-03-15T22:12:45.564Z,88810.22
2023-03-15T22:15:12.917Z,88805.13
2023-03-15T22:17:40.007Z,88810.66
2023-03-15T22:20:07.511Z,88802.28
2023-03-15T22:22:34.297Z,88802.28
2023-03-15T22:25:01.111Z,88802.06
2023-03-15T22:27:27.945Z,88795.47
2023-03-15T22:29:54.763Z,88801.91
2023-03-15T22:32:21.638Z,88796.00
2023-03-15T22:34:48.368Z,88809.34
2023-03-15T22:37:15.236Z,88801.59
2023-03-15T22:39:42.060Z,88806.03
2023-03-15T22:42:09.246Z,88810.56
2023-03-15T22:44:36.096Z,88808.41
2023-03-15T22:47:03.366Z,88801.94
2023-03-15T22:49:30.231Z,88803.84
2023-03-15T22:51:57.134Z,88788.69
2023-03-15T22:54:24.359Z,88794.72
2023-03-15T22:56:51.634Z,88793.81
2023-03-15T22:59:18.411Z,88787.44
2023-03-15T23:01:45.333Z,88794.06
2023-03-15T23:04:12.219Z,88795.44
2023-03-15T23:06:39.091Z,88794.31
2023-03-15T23:09:06.743Z,88801.94
2023-03-15T23:11:33.646Z,88798.09
2023-03-15T23:14:00.508Z,88786.06
2023-03-15T23:16:27.557Z,88782.91
2023-03-15T23:18:54.461Z,88770.53
2023-03-15T23:21:21.329Z,88777.78
2023-03-15T23:23:48.168Z,88775.88
2023-03-15T23:26:15.476Z,88777.94
2023-03-15T23:28:42.964Z,88788.97
2023-03-15T23:31:10.049Z,88785.34
2023-03-15T23:33:37.138Z,88781.69
2023-03-15T23:36:05.939Z,88783.69
2023-03-15T23:38:33.695Z,88775.16
2023-03-15T23:41:01.057Z,88777.47
2023-03-15T23:43:28.555Z,88770.66
2023-03-15T23:45:57.042Z,88764.22
2023-03-15T23:48:24.912Z,88763.50
2023-03-15T23:50:53.586Z,88760.41
2023-03-15T23:53:20.707Z,88754.25
2023-03-15T23:55:47.780Z,88757.38
2023-03-15T23:58:14.876Z,88762.91
